Time;durP1;ratioP1;P1;durP2;ratioP2;P2;SDS_P1;SDS_P2;PMS_P1;PMS_P2;Temp;Humidity;BMP_temperature;BMP_pressure;BME280_temperature;BME280_humidity;BME280_pressure;Samples;Min_cycle;Max_cycle;Signal;HPM_P1;HPM_P2
2022/04/23 06:45:14;;;;;;;34.70;20.65;;;13.60;99.90;;;;;;6146941;23;20032;-74
2022/04/23 06:47:40;;;;;;;39.03;21.83;;;13.70;99.90;;;;;;6148870;23;20017;-74
2022/04/23 06:50:12;;;;;;;35.80;21.20;;;13.70;99.90;;;;;;6148578;23;20002;-74
2022/04/23 06:52:38;;;;;;;;;;;13.80;99.90;;;;;;6148296;23;20442;-74
2022/04/23 06:55:05;;;;;;;34.80;19.02;;;13.80;99.90;;;;;;6148629;23;19904;-74
2022/04/23 06:57:31;;;;;;;33.50;20.25;;;13.90;99.90;;;;;;6148680;23;20484;-75
2022/04/23 07:00:00;;;;;;;35.22;19.30;;;13.90;99.90;;;;;;6148397;23;20025;-75
2022/04/23 07:02:26;;;;;;;36.63;19.88;;;13.90;99.90;;;;;;6148458;23;20437;-75
2022/04/23 07:04:51;;;;;;;30.23;19.02;;;13.90;99.90;;;;;;6148821;23;20092;-75
2022/04/23 07:07:17;;;;;;;33.20;18.75;;;14.00;99.90;;;;;;6121838;23;20092;-75
2022/04/23 07:09:43;;;;;;;32.70;18.98;;;14.00;99.90;;;;;;6149574;23;20005;-75
2022/04/23 07:12:09;;;;;;;32.50;18.65;;;14.00;99.90;;;;;;6148059;23;20029;-75
2022/04/23 07:14:35;;;;;;;30.70;18.70;;;14.10;99.90;;;;;;6148357;23;20017;-75
2022/04/23 07:17:01;;;;;;;30.02;18.83;;;14.10;99.90;;;;;;6148717;23;20202;-75
2022/04/23 07:19:27;;;;;;;31.20;19.27;;;14.20;99.90;;;;;;6147680;23;20409;-75
2022/04/23 07:21:52;;;;;;;35.72;19.17;;;14.20;99.90;;;;;;6147781;23;20002;-75
2022/04/23 07:24:18;;;;;;;37.03;19.65;;;14.20;99.90;;;;;;6145894;23;20029;-75
2022/04/23 07:26:44;;;;;;;33.88;20.20;;;14.20;99.90;;;;;;6145736;23;19997;-75
2022/04/23 07:29:10;;;;;;;35.20;20.63;;;14.30;99.90;;;;;;6146728;23;20059;-75
2022/04/23 07:31:37;;;;;;;31.77;19.25;;;14.30;99.90;;;;;;6119860;23;20093;-75
2022/04/23 07:39:36;;;;;;;33.20;18.70;;;14.40;99.90;;;;;;6147852;23;20120;-75
2022/04/23 07:42:03;;;;;;;35.08;20.15;;;14.50;99.90;;;;;;6121707;23;20014;-75
2022/04/23 07:44:29;;;;;;;34.97;20.60;;;14.60;99.90;;;;;;6156421;23;20016;-75
2022/04/23 07:46:55;;;;;;;33.88;19.95;;;14.60;99.90;;;;;;6176322;23;20004;-75
2022/04/23 07:49:20;;;;;;;33.00;19.05;;;14.60;99.90;;;;;;6176679;23;20004;-76
2022/04/23 07:51:50;;;;;;;34.55;20.10;;;14.50;99.90;;;;;;6177311;23;20008;-75
2022/04/23 07:54:16;;;;;;;32.10;19.63;;;14.60;99.90;;;;;;6149702;23;20011;-75
2022/04/23 07:56:44;;;;;;;31.15;19.20;;;14.60;99.90;;;;;;6176625;23;20005;-75
2022/04/23 07:59:10;;;;;;;32.10;18.15;;;14.70;99.90;;;;;;6151471;23;20013;-76
2022/04/23 08:01:36;;;;;;;31.30;18.73;;;14.60;99.90;;;;;;6176442;23;20341;-75
2022/04/23 08:04:06;;;;;;;29.23;18.33;;;14.60;99.90;;;;;;6177326;23;19997;-75
2022/04/23 08:06:33;;;;;;;28.50;18.27;;;14.70;99.90;;;;;;6178405;23;20062;-75
2022/04/23 08:09:00;;;;;;;31.60;17.40;;;14.60;99.90;;;;;;6150215;23;20005;-75
2022/04/23 08:11:26;;;;;;;29.20;17.02;;;14.70;99.90;;;;;;6150558;23;20108;-75
2022/04/23 08:13:56;;;;;;;27.25;15.88;;;14.80;99.90;;;;;;6177204;23;20013;-75
2022/04/23 08:16:22;;;;;;;26.40;16.40;;;14.70;99.90;;;;;;6176890;23;20001;-75
2022/04/23 08:18:48;;;;;;;25.27;15.32;;;14.80;99.90;;;;;;6177854;23;20056;-75
2022/04/23 08:21:14;;;;;;;26.92;16.13;;;14.90;99.90;;;;;;6177957;23;20405;-75
2022/04/23 08:23:40;;;;;;;27.02;15.57;;;14.90;99.90;;;;;;6177591;23;19997;-74
2022/04/23 08:26:05;;;;;;;23.30;14.35;;;14.90;99.90;;;;;;6178815;23;20059;-74
2022/04/23 08:31:17;;;;;;;20.63;13.50;;;14.90;99.90;;;;;;6179948;23;20499;-75
2022/04/23 08:33:57;;;;;;;24.40;14.07;;;14.90;99.90;;;;;;6151582;23;20039;-76
2022/04/23 08:36:23;;;;;;;19.08;12.65;;;15.00;99.90;;;;;;6177802;23;20092;-75
2022/04/23 08:38:49;;;;;;;21.35;13.98;;;15.00;99.90;;;;;;6151626;23;20444;-75
2022/04/23 08:41:15;;;;;;;17.30;12.60;;;15.00;99.90;;;;;;6178724;23;20016;-75
2022/04/23 08:43:44;;;;;;;16.85;12.55;;;14.90;99.90;;;;;;6177431;23;20002;-75
2022/04/23 08:46:09;;;;;;;15.85;11.43;;;14.90;99.90;;;;;;6177552;23;20009;-75
2022/04/23 08:48:38;;;;;;;17.33;12.18;;;14.90;99.90;;;;;;6178147;23;20549;-75
2022/04/23 08:51:12;;;;;;;17.25;11.40;;;15.00;99.90;;;;;;6177362;23;20080;-75
2022/04/23 08:53:40;;;;;;;19.20;11.95;;;15.10;99.90;;;;;;6177104;23;20005;-75
2022/04/23 08:56:08;;;;;;;12.98;10.35;;;15.10;99.90;;;;;;6177750;23;20088;-75
2022/04/23 08:58:33;;;;;;;17.30;11.38;;;15.20;99.90;;;;;;6177736;23;20059;-75
2022/04/23 09:00:59;;;;;;;18.42;11.48;;;15.20;99.90;;;;;;6176874;23;20360;-75
2022/04/23 09:03:25;;;;;;;18.15;12.25;;;15.30;99.90;;;;;;6178232;23;20001;-75
2022/04/23 09:05:52;;;;;;;20.63;11.90;;;15.30;99.90;;;;;;6177103;23;20020;-75
2022/04/23 09:08:18;;;;;;;17.42;11.15;;;15.30;99.90;;;;;;6150902;23;20011;-74
2022/04/23 09:10:55;;;;;;;17.70;11.73;;;15.40;99.90;;;;;;6177549;23;20020;-75
2022/04/23 09:13:28;;;;;;;16.73;11.13;;;15.40;99.90;;;;;;6155705;23;20473;-74
2022/04/23 09:24:47;;;;;;;15.48;9.82;;;15.40;99.90;;;;;;6184228;23;20012;-75
2022/04/23 09:27:14;;;;;;;15.13;10.43;;;15.40;99.90;;;;;;6184706;23;20533;-81
2022/04/23 09:29:42;;;;;;;15.63;10.90;;;15.50;99.90;;;;;;6185572;23;20673;-80
2022/04/23 09:32:14;;;;;;;15.38;11.27;;;15.40;99.90;;;;;;6186730;23;20425;-81
2022/04/23 09:34:41;;;;;;;16.95;10.48;;;15.50;99.90;;;;;;6186467;23;20001;-81
2022/04/23 09:37:08;;;;;;;15.60;10.63;;;15.50;99.90;;;;;;6185880;23;20009;-81
2022/04/23 09:39:36;;;;;;;17.23;11.18;;;15.60;99.90;;;;;;6156193;23;20005;-81
2022/04/23 09:42:17;;;;;;;10.88;7.80;;;15.60;99.90;;;;;;6179084;23;20032;-81
2022/04/23 09:44:44;;;;;;;13.10;7.20;;;15.70;99.90;;;;;;6179374;23;20114;-81
2022/04/23 09:47:11;;;;;;;9.98;6.70;;;15.80;99.90;;;;;;6178850;23;20384;-81
2022/04/23 09:49:38;;;;;;;13.52;7.70;;;15.80;99.90;;;;;;6179250;23;20008;-81
2022/04/23 09:52:11;;;;;;;10.30;8.18;;;15.80;99.90;;;;;;6178989;23;20095;-81
2022/04/23 09:54:38;;;;;;;12.52;8.30;;;15.80;99.90;;;;;;6178600;23;20012;-81
2022/04/23 09:57:05;;;;;;;12.80;8.20;;;15.80;99.90;;;;;;6178637;23;20001;-81
2022/04/23 09:59:31;;;;;;;11.95;9.20;;;15.70;99.90;;;;;;6181508;23;20001;-81
2022/04/23 10:45:40;;;;;;;14.05;9.65;;;16.20;99.90;;;;;;6163649;23;20020;-79
2022/04/23 10:48:43;;;;;;;15.30;9.13;;;16.30;99.90;;;;;;6209652;23;20001;-79
2022/04/23 10:51:11;;;;;;;14.75;9.90;;;16.50;99.90;;;;;;6195296;23;20031;-79
2022/04/23 10:53:41;;;;;;;12.50;9.20;;;16.50;99.90;;;;;;6208542;23;20004;-80
2022/04/23 10:56:12;;;;;;;14.05;9.82;;;16.60;99.90;;;;;;6207902;23;20024;-79
2022/04/23 10:58:38;;;;;;;13.25;9.50;;;16.70;99.90;;;;;;6209627;23;20327;-79
2022/04/23 11:01:30;;;;;;;12.63;9.48;;;16.90;99.90;;;;;;6209399;23;20391;-79
2022/04/23 11:03:59;;;;;;;14.60;9.82;;;16.90;99.90;;;;;;6208769;23;20007;-79
2022/04/23 11:12:32;;;;;;;13.48;9.45;;;17.10;99.90;;;;;;6209441;23;20329;-79
2022/04/23 11:14:59;;;;;;;14.55;9.82;;;17.10;99.90;;;;;;6206930;23;20336;-80
2022/04/23 11:17:32;;;;;;;16.13;10.57;;;17.10;99.90;;;;;;6208360;23;20005;-79
2022/04/23 11:19:59;;;;;;;15.88;10.63;;;17.00;99.90;;;;;;6207111;23;20012;-79
2022/04/23 11:22:26;;;;;;;15.75;10.50;;;16.90;99.90;;;;;;6207724;23;20001;-80
2022/04/23 11:24:57;;;;;;;16.63;10.65;;;17.00;99.90;;;;;;6207884;23;20048;-79
2022/04/23 11:27:32;;;;;;;12.82;8.90;;;16.90;99.90;;;;;;6208953;23;20020;-79
2022/04/23 11:29:58;;;;;;;15.68;10.23;;;16.90;99.90;;;;;;6208725;23;20393;-80
2022/04/23 11:32:26;;;;;;;12.27;9.07;;;16.90;99.90;;;;;;6208483;23;20028;-80
2022/04/23 11:34:56;;;;;;;12.00;9.23;;;17.10;99.90;;;;;;6209236;23;20421;-81
2022/04/23 11:37:30;;;;;;;12.85;8.98;;;17.30;99.90;;;;;;6208480;23;20607;-80
2022/04/23 11:40:07;;;;;;;13.18;8.10;;;17.60;99.90;;;;;;6208376;23;20004;-80
2022/04/23 11:42:41;;;;;;;10.57;8.25;;;17.80;99.90;;;;;;6205712;23;20444;-80
2022/04/23 11:45:08;;;;;;;10.80;8.05;;;17.80;99.90;;;;;;6206297;23;20016;-80
2022/04/23 11:47:33;;;;;;;11.95;8.50;;;17.80;99.90;;;;;;6208876;23;20003;-81
2022/04/23 11:50:24;;;;;;;10.57;8.48;;;17.90;99.90;;;;;;6208413;23;20009;-80
2022/04/23 11:53:01;;;;;;;11.18;8.55;;;18.00;99.90;;;;;;6207398;23;20011;-80
2022/04/23 11:55:28;;;;;;;9.35;8.02;;;18.40;99.90;;;;;;6207504;23;20008;-80
2022/04/23 11:57:55;;;;;;;10.40;7.43;;;18.50;99.90;;;;;;6208040;23;20004;-80
2022/04/23 12:00:22;;;;;;;7.63;5.97;;;18.60;99.90;;;;;;6208060;23;20001;-80
2022/04/23 12:02:48;;;;;;;8.40;6.57;;;18.60;99.90;;;;;;6207668;23;20088;-81
2022/04/23 12:05:23;;;;;;;11.65;7.03;;;18.70;99.90;;;;;;6208466;23;20514;-80
2022/04/23 12:07:49;;;;;;;8.32;6.70;;;18.80;99.90;;;;;;6213604;23;20000;-80
2022/04/23 12:10:14;;;;;;;10.25;7.78;;;18.80;99.90;;;;;;6215452;23;20425;-80
2022/04/23 12:12:42;;;;;;;8.70;7.10;;;18.90;99.90;;;;;;6214873;23;19996;-80
2022/04/23 12:15:14;;;;;;;11.63;7.15;;;18.90;99.90;;;;;;6214725;23;20066;-80
2022/04/23 12:17:49;;;;;;;7.57;5.82;;;18.90;99.90;;;;;;6214994;23;20008;-80
2022/04/23 12:20:17;;;;;;;7.10;6.20;;;18.80;99.90;;;;;;6215246;23;20337;-81
2022/04/23 12:23:02;;;;;;;8.43;6.78;;;18.70;99.90;;;;;;6213484;23;20036;-80
2022/04/23 12:25:30;;;;;;;9.38;6.88;;;18.90;99.90;;;;;;6215277;23;20000;-80
2022/04/23 12:42:22;;;;;;;7.00;6.30;;;19.20;99.90;;;;;;6213029;23;20344;-80
2022/04/23 12:44:51;;;;;;;11.00;6.05;;;19.30;99.90;;;;;;6212550;23;20206;-80
2022/04/23 12:47:26;;;;;;;8.05;5.40;;;19.40;99.90;;;;;;6212334;23;20004;-80
2022/04/23 12:49:56;;;;;;;5.00;4.60;;;19.50;99.90;;;;;;6213318;23;20006;-80
2022/04/23 12:52:27;;;;;;;6.68;5.07;;;19.40;99.90;;;;;;6214470;23;20455;-80
2022/04/23 12:55:13;;;;;;;8.73;5.45;;;19.30;99.90;;;;;;6212723;23;20491;-80
2022/04/23 12:57:53;;;;;;;5.88;5.28;;;19.30;99.90;;;;;;6212585;23;20079;-80
2022/04/23 13:00:24;;;;;;;4.75;4.18;;;19.10;99.90;;;;;;6214319;23;20015;-80
2022/04/23 13:02:57;;;;;;;5.63;5.13;;;19.10;99.90;;;;;;6213992;23;20019;-80
2022/04/23 13:05:24;;;;;;;5.53;5.03;;;19.10;99.90;;;;;;6214146;23;20047;-80
2022/04/23 13:10:34;;;;;;;5.35;4.65;;;18.90;99.90;;;;;;6214125;23;20012;-80
2022/04/23 13:13:00;;;;;;;11.82;7.18;;;18.80;99.90;;;;;;6214324;23;20008;-80
2022/04/23 13:15:26;;;;;;;7.30;6.00;;;18.70;99.90;;;;;;6212456;23;20067;-80
2022/04/23 13:17:52;;;;;;;6.45;5.85;;;18.60;99.90;;;;;;6212752;23;20255;-80
2022/04/23 13:20:21;;;;;;;9.00;6.63;;;18.60;99.90;;;;;;6212138;23;20016;-80
2022/04/23 13:22:47;;;;;;;9.15;6.70;;;18.50;99.90;;;;;;6213832;23;20012;-80
2022/04/23 13:25:16;;;;;;;7.95;6.60;;;18.40;99.90;;;;;;6212673;23;20432;-80
2022/04/23 13:27:42;;;;;;;9.55;6.70;;;18.40;99.90;;;;;;6214342;23;20032;-80
2022/04/23 13:30:09;;;;;;;9.75;6.78;;;18.40;99.90;;;;;;6214616;23;20060;-80
2022/04/23 13:32:37;;;;;;;9.38;6.40;;;18.40;99.90;;;;;;6214686;23;20008;-80
2022/04/23 13:35:04;;;;;;;6.63;6.03;;;18.50;99.90;;;;;;6214285;23;20462;-80
2022/04/23 13:37:30;;;;;;;10.60;7.50;;;18.70;99.90;;;;;;6212808;23;20032;-80
2022/04/23 13:39:56;;;;;;;8.70;7.40;;;18.80;99.90;;;;;;6214588;23;20447;-80
2022/04/23 13:42:25;;;;;;;8.27;6.35;;;18.80;99.90;;;;;;6214285;23;20000;-80
2022/04/23 13:44:53;;;;;;;7.47;6.53;;;18.80;99.90;;;;;;6212487;23;20083;-80
2022/04/23 13:47:20;;;;;;;6.18;5.40;;;18.90;99.90;;;;;;6213332;23;20034;-80
2022/04/23 13:49:46;;;;;;;8.00;5.88;;;18.70;99.90;;;;;;6214521;23;20047;-80
2022/04/23 13:52:15;;;;;;;7.20;5.43;;;18.70;99.90;;;;;;6214296;23;20086;-79
2022/04/23 13:54:41;;;;;;;9.23;5.15;;;18.70;99.90;;;;;;6214197;23;20031;-80
2022/04/23 13:57:07;;;;;;;5.55;5.03;;;18.70;99.90;;;;;;6212616;23;20432;-80
2022/04/23 13:59:33;;;;;;;5.95;5.38;;;18.60;99.90;;;;;;6214442;23;20108;-80
2022/04/23 14:10:28;;;;;;;5.07;4.25;;;18.50;99.90;;;;;;6178374;23;20001;-80
2022/04/23 14:12:54;;;;;;;5.18;4.60;;;18.40;99.90;;;;;;6210445;23;20511;-80
2022/04/23 14:15:20;;;;;;;4.65;3.92;;;18.30;99.90;;;;;;6211980;23;20009;-80
2022/04/23 14:17:45;;;;;;;5.55;4.28;;;18.20;99.90;;;;;;6211894;23;19996;-80
2022/04/23 14:20:11;;;;;;;5.00;4.22;;;18.20;99.90;;;;;;6211939;23;20519;-80
2022/04/23 14:22:37;;;;;;;5.32;4.07;;;18.20;99.90;;;;;;6211705;23;20004;-80
2022/04/23 14:25:03;;;;;;;4.90;3.78;;;18.20;99.90;;;;;;6212811;23;19997;-80
2022/04/23 14:27:29;;;;;;;5.28;4.72;;;18.10;99.90;;;;;;6213898;23;19997;-80
2022/04/23 14:29:57;;;;;;;8.90;5.28;;;18.00;99.90;;;;;;6213837;23;20007;-80
2022/04/23 14:32:23;;;;;;;6.20;4.82;;;18.00;99.90;;;;;;6213940;23;20004;-80
2022/04/23 14:34:49;;;;;;;5.85;5.25;;;17.90;99.90;;;;;;6212583;23;20486;-80
2022/04/23 14:37:15;;;;;;;8.13;4.97;;;17.90;99.90;;;;;;6213973;23;20252;-79
2022/04/23 14:39:41;;;;;;;6.00;5.40;;;17.90;99.90;;;;;;6214111;23;20436;-79
2022/04/23 14:42:07;;;;;;;7.10;6.40;;;17.90;99.90;;;;;;6212333;23;20451;-79
2022/04/23 14:44:34;;;;;;;6.60;5.93;;;17.90;99.90;;;;;;6213744;23;20027;-80
2022/04/23 14:47:01;;;;;;;7.93;6.20;;;17.80;99.90;;;;;;6213665;23;20012;-80
2022/04/23 14:49:27;;;;;;;7.30;6.13;;;17.70;99.90;;;;;;6214076;23;20001;-80
2022/04/23 14:54:37;;;;;;;9.15;6.95;;;17.70;99.90;;;;;;6213677;23;20322;-81
2022/04/23 14:57:03;;;;;;;8.15;6.88;;;17.70;99.90;;;;;;6213749;23;20005;-79
2022/04/23 14:59:29;;;;;;;8.73;6.85;;;17.70;99.90;;;;;;6213555;23;20000;-80
2022/04/23 15:01:55;;;;;;;7.53;6.53;;;17.60;99.90;;;;;;6213541;23;20520;-80
2022/04/23 15:04:22;;;;;;;9.90;7.25;;;17.60;99.90;;;;;;6213139;23;20028;-80
2022/04/23 15:06:48;;;;;;;8.40;6.32;;;17.60;99.90;;;;;;6212323;23;20469;-80
2022/04/23 15:09:13;;;;;;;7.57;6.40;;;17.60;99.90;;;;;;6211855;23;20005;-80
2022/04/23 15:11:39;;;;;;;6.03;5.43;;;17.50;99.90;;;;;;6210325;23;20008;-80
2022/04/23 15:14:05;;;;;;;7.43;5.95;;;17.50;99.90;;;;;;6212661;23;20063;-80
2022/04/23 15:16:31;;;;;;;7.35;5.50;;;17.50;99.90;;;;;;6212936;23;20392;-80
2022/04/23 15:18:57;;;;;;;6.38;5.75;;;17.40;99.90;;;;;;6212599;23;20011;-80
2022/04/23 15:21:23;;;;;;;6.00;5.35;;;17.40;99.90;;;;;;6212705;23;20008;-80
2022/04/23 15:23:49;;;;;;;8.75;5.47;;;17.30;99.90;;;;;;6212405;23;19997;-80
2022/04/23 15:26:15;;;;;;;7.43;5.47;;;17.30;99.90;;;;;;6211074;23;20027;-80
2022/04/23 15:28:41;;;;;;;6.63;5.75;;;17.30;99.90;;;;;;6209874;23;20009;-80
2022/04/23 15:31:08;;;;;;;8.60;5.97;;;17.20;99.90;;;;;;6211135;23;20011;-80
2022/04/23 15:33:34;;;;;;;6.50;5.55;;;17.20;99.90;;;;;;6209370;23;20028;-80
2022/04/23 15:36:04;;;;;;;6.15;5.55;;;17.10;99.90;;;;;;6211238;23;20007;-79
2022/04/23 15:38:30;;;;;;;6.25;5.55;;;17.10;99.90;;;;;;6211412;23;20001;-80
2022/04/23 15:40:56;;;;;;;8.13;5.93;;;17.00;99.90;;;;;;6211581;23;20372;-80
2022/04/23 15:43:22;;;;;;;9.10;5.95;;;17.00;99.90;;;;;;6211702;23;20083;-79
2022/04/23 15:45:48;;;;;;;8.95;7.03;;;16.80;99.90;;;;;;6213051;23;20400;-80
2022/04/23 15:48:14;;;;;;;7.72;6.45;;;16.80;99.90;;;;;;6213355;23;20000;-80
2022/04/23 15:50:46;;;;;;;8.35;6.28;;;16.70;99.90;;;;;;6211704;23;20009;-80
2022/04/23 15:53:13;;;;;;;11.23;6.78;;;16.70;99.90;;;;;;6211500;23;20340;-79
2022/04/23 15:55:39;;;;;;;8.00;6.65;;;16.60;99.90;;;;;;6213126;23;20000;-79
2022/04/23 15:58:04;;;;;;;8.18;6.50;;;16.70;99.90;;;;;;6213114;23;20000;-79
2022/04/23 16:00:30;;;;;;;8.45;6.70;;;16.60;99.90;;;;;;6213098;23;19997;-79
2022/04/23 16:05:42;;;;;;;9.77;6.45;;;16.50;99.90;;;;;;6213175;23;20051;-79
2022/04/23 16:08:12;;;;;;;10.98;6.63;;;16.40;99.90;;;;;;6213097;23;20000;-79
2022/04/23 16:10:38;;;;;;;10.40;7.55;;;16.40;99.90;;;;;;6213136;23;20433;-79
2022/04/23 16:13:04;;;;;;;12.75;7.80;;;16.40;99.90;;;;;;6212623;23;20429;-79
2022/04/23 16:15:30;;;;;;;11.23;7.88;;;16.30;99.90;;;;;;6213218;23;20079;-79
2022/04/23 16:17:56;;;;;;;8.70;6.63;;;16.30;99.90;;;;;;6213073;23;20028;-79
2022/04/23 16:20:25;;;;;;;8.43;6.47;;;16.30;99.90;;;;;;6212883;23;20445;-79
2022/04/23 16:22:51;;;;;;;8.50;7.55;;;16.20;99.90;;;;;;6211253;23;20503;-79
2022/04/23 16:25:17;;;;;;;9.45;7.13;;;16.20;99.90;;;;;;6212547;23;20035;-79
2022/04/23 16:27:43;;;;;;;9.98;7.45;;;16.20;99.90;;;;;;6211389;23;20079;-79
2022/04/23 16:30:09;;;;;;;12.95;7.82;;;16.20;99.90;;;;;;6213011;23;19996;-79
2022/04/23 16:32:35;;;;;;;10.45;7.22;;;16.20;99.90;;;;;;6211150;23;20139;-79
2022/04/23 16:35:05;;;;;;;10.32;8.18;;;16.20;99.90;;;;;;6212819;23;20317;-79
2022/04/23 16:48:28;;;;;;;10.02;7.60;;;16.00;99.90;;;;;;6212899;23;20099;-79
2022/04/23 16:50:56;;;;;;;10.43;7.75;;;16.00;99.90;;;;;;6212936;23;19996;-79
2022/04/23 16:53:22;;;;;;;8.77;7.78;;;16.00;99.90;;;;;;6212551;23;20001;-79
2022/04/23 16:55:50;;;;;;;10.73;7.65;;;16.00;99.90;;;;;;6212934;23;20486;-79
2022/04/23 16:58:16;;;;;;;12.43;6.65;;;16.00;99.90;;;;;;6212901;23;20028;-79
2022/04/23 17:00:46;;;;;;;8.68;7.30;;;16.00;99.90;;;;;;6212823;23;20008;-79
2022/04/23 17:03:12;;;;;;;11.45;7.88;;;16.00;99.90;;;;;;6210832;23;20036;-79
2022/04/23 17:05:41;;;;;;;7.70;7.00;;;16.00;99.90;;;;;;6211344;23;20021;-79
2022/04/23 17:08:07;;;;;;;10.52;7.78;;;16.00;99.90;;;;;;6212661;23;19996;-79
2022/04/23 17:10:33;;;;;;;9.90;7.78;;;15.90;99.90;;;;;;6211072;23;20084;-79
2022/04/23 17:12:59;;;;;;;11.70;8.70;;;15.90;99.90;;;;;;6212589;23;20004;-79
2022/04/23 17:15:25;;;;;;;14.85;9.45;;;15.90;99.90;;;;;;6212622;23;20083;-79
2022/04/23 17:17:51;;;;;;;11.25;8.02;;;15.90;99.90;;;;;;6211285;23;20012;-79
2022/04/23 17:20:17;;;;;;;9.85;7.65;;;15.90;99.90;;;;;;6212704;23;20000;-79
2022/04/23 17:22:43;;;;;;;9.88;7.90;;;15.90;99.90;;;;;;6210420;23;20066;-79
2022/04/23 17:25:10;;;;;;;12.27;7.03;;;15.80;99.90;;;;;;6212707;23;20332;-79
2022/04/23 17:27:36;;;;;;;9.63;6.88;;;15.80;99.90;;;;;;6212716;23;20019;-79
2022/04/23 17:30:06;;;;;;;10.15;7.22;;;15.90;99.90;;;;;;6212551;23;20329;-79
2022/04/23 17:32:32;;;;;;;8.88;7.15;;;15.80;99.90;;;;;;6212491;23;20000;-79
2022/04/23 17:34:58;;;;;;;7.45;6.50;;;15.80;99.90;;;;;;6212649;23;20001;-79
2022/04/23 17:37:24;;;;;;;8.57;6.47;;;15.80;99.90;;;;;;6214224;23;20083;-79
2022/04/23 17:39:50;;;;;;;9.80;7.05;;;15.70;99.90;;;;;;6214474;23;20017;-79
2022/04/23 17:42:16;;;;;;;10.23;7.32;;;15.70;99.90;;;;;;6212912;23;20008;-79
2022/04/23 17:44:42;;;;;;;6.93;6.30;;;15.80;99.90;;;;;;6214532;23;19996;-79
2022/04/23 17:47:08;;;;;;;5.90;5.18;;;15.80;99.90;;;;;;6214165;23;20019;-79
2022/04/23 17:49:35;;;;;;;5.90;5.32;;;15.80;99.90;;;;;;6212690;23;20313;-80
2022/04/23 17:52:01;;;;;;;5.82;5.20;;;15.80;99.90;;;;;;6214369;23;20024;-80
2022/04/23 17:54:28;;;;;;;5.47;4.97;;;15.80;99.90;;;;;;6212403;23;20008;-79
2022/04/23 17:56:54;;;;;;;7.20;5.00;;;15.70;99.90;;;;;;6214208;23;20240;-79
2022/04/23 17:59:23;;;;;;;7.45;6.25;;;15.70;99.90;;;;;;6214321;23;20008;-79
2022/04/23 18:07:23;;;;;;;6.47;5.65;;;15.60;99.90;;;;;;6214258;23;20032;-79
2022/04/23 18:09:50;;;;;;;6.50;5.68;;;15.60;99.90;;;;;;6213281;23;20007;-79
2022/04/23 18:12:16;;;;;;;6.45;5.85;;;15.60;99.90;;;;;;6211646;23;20047;-79
2022/04/23 18:14:42;;;;;;;8.05;4.95;;;15.50;99.90;;;;;;6213900;23;20432;-80
2022/04/23 18:17:09;;;;;;;5.28;4.78;;;15.50;99.90;;;;;;6214103;23;20001;-79
2022/04/23 18:19:36;;;;;;;10.02;5.30;;;15.50;99.90;;;;;;6209419;23;20070;-80
2022/04/23 18:22:06;;;;;;;5.00;4.68;;;15.50;99.90;;;;;;6213050;23;20008;-79
2022/04/23 18:24:32;;;;;;;4.85;4.50;;;15.40;99.90;;;;;;6213515;23;20387;-79
2022/04/23 18:26:59;;;;;;;4.60;4.20;;;15.40;99.90;;;;;;6213371;23;20379;-79
2022/04/23 18:29:25;;;;;;;8.20;5.40;;;15.40;99.90;;;;;;6213336;23;20021;-79
2022/04/23 18:31:54;;;;;;;5.43;4.70;;;15.40;99.90;;;;;;6213545;23;20458;-80
2022/04/23 18:34:24;;;;;;;5.07;4.68;;;15.30;99.90;;;;;;6211995;23;20012;-80
2022/04/23 18:36:53;;;;;;;4.85;4.45;;;15.30;99.90;;;;;;6213518;23;20200;-79
2022/04/23 18:39:19;;;;;;;4.45;4.05;;;15.20;99.90;;;;;;6212173;23;20032;-80
2022/04/23 18:41:47;;;;;;;6.22;4.35;;;15.20;99.90;;;;;;6213087;23;20001;-80
2022/04/23 18:44:13;;;;;;;4.38;4.07;;;15.20;99.90;;;;;;6211815;23;20000;-80
2022/04/23 18:46:39;;;;;;;6.38;4.60;;;15.20;99.90;;;;;;6212831;23;20023;-80
2022/04/23 18:49:04;;;;;;;4.30;3.97;;;15.20;99.90;;;;;;6211265;23;20080;-79
2022/04/23 18:51:30;;;;;;;3.92;3.58;;;15.10;99.90;;;;;;6213332;23;20028;-79
2022/04/23 18:53:56;;;;;;;6.25;4.03;;;15.10;99.90;;;;;;6213302;23;20156;-80
2022/04/23 18:56:22;;;;;;;5.78;4.03;;;15.10;99.90;;;;;;6213356;23;20054;-80
2022/04/23 18:58:48;;;;;;;3.97;3.63;;;15.10;99.90;;;;;;6213301;23;20001;-79
2022/04/23 19:01:14;;;;;;;4.25;3.88;;;15.00;99.90;;;;;;6213106;23;20450;-79
2022/04/23 19:03:41;;;;;;;5.82;4.50;;;15.00;99.90;;;;;;6211041;23;20008;-80
2022/04/23 19:06:07;;;;;;;3.95;3.65;;;14.90;99.90;;;;;;6213220;23;20001;-79
2022/04/23 19:08:33;;;;;;;4.45;3.53;;;14.90;99.90;;;;;;6211478;23;20054;-79
2022/04/23 19:11:07;;;;;;;3.42;3.22;;;14.80;99.90;;;;;;6213176;23;19997;-79
2022/04/23 19:13:33;;;;;;;3.53;3.22;;;14.80;99.90;;;;;;6211281;23;20005;-80
2022/04/23 19:15:59;;;;;;;3.88;3.58;;;14.80;99.90;;;;;;6213216;23;20051;-79
2022/04/23 19:18:29;;;;;;;3.58;3.28;;;14.90;99.90;;;;;;6213013;23;20009;-79
2022/04/23 19:29:07;;;;;;;6.13;2.45;;;15.00;99.90;;;;;;6211543;23;20062;-80
2022/04/23 19:31:33;;;;;;;2.20;2.05;;;15.00;99.90;;;;;;6212260;23;20005;-80
2022/04/23 19:34:06;;;;;;;2.58;1.60;;;15.00;99.90;;;;;;6209995;23;20455;-80
2022/04/23 19:36:36;;;;;;;2.17;2.00;;;15.10;99.90;;;;;;6211755;23;20012;-80
2022/04/23 19:39:07;;;;;;;3.17;2.00;;;15.10;99.90;;;;;;6213499;23;20055;-80
2022/04/23 19:41:33;;;;;;;2.80;2.17;;;15.20;99.90;;;;;;6211419;23;20376;-80
2022/04/23 19:44:01;;;;;;;4.65;2.15;;;15.20;99.90;;;;;;6211576;23;20220;-80
2022/04/23 19:46:28;;;;;;;2.72;2.20;;;15.20;99.90;;;;;;6211320;23;20016;-80
2022/04/23 19:48:54;;;;;;;2.53;2.42;;;15.20;99.90;;;;;;6213371;23;20083;-80
2022/04/23 19:51:22;;;;;;;3.85;2.70;;;15.20;99.90;;;;;;6213238;23;20035;-80
2022/04/23 19:53:48;;;;;;;3.05;2.80;;;15.10;99.90;;;;;;6211088;23;20001;-80
2022/04/23 19:56:14;;;;;;;3.85;2.90;;;15.00;99.90;;;;;;6213198;23;20421;-80
2022/04/23 19:58:41;;;;;;;3.38;3.08;;;15.00;99.90;;;;;;6211377;23;20009;-80
2022/04/23 20:01:10;;;;;;;4.28;3.22;;;15.00;99.90;;;;;;6211227;23;20008;-80
2022/04/23 20:03:36;;;;;;;3.25;2.95;;;15.00;99.90;;;;;;6211562;23;20327;-80
2022/04/23 20:06:03;;;;;;;2.00;1.83;;;15.00;99.90;;;;;;6212834;23;20002;-80
2022/04/23 20:08:29;;;;;;;1.77;1.67;;;15.00;99.90;;;;;;6212894;23;20021;-80
2022/04/23 20:10:55;;;;;;;2.17;2.00;;;15.00;99.90;;;;;;6211275;23;20432;-79
2022/04/23 20:13:21;;;;;;;2.38;1.63;;;15.00;99.90;;;;;;6212845;23;20083;-80
2022/04/23 20:15:47;;;;;;;2.08;1.95;;;15.00;99.90;;;;;;6212459;23;20004;-79
2022/04/23 20:18:12;;;;;;;2.33;2.00;;;14.90;99.90;;;;;;6213361;23;20001;-79
2022/04/23 20:20:38;;;;;;;1.98;1.63;;;14.90;99.90;;;;;;6213052;23;20332;-80
2022/04/23 20:23:05;;;;;;;1.92;1.83;;;14.90;99.90;;;;;;6212402;23;20083;-80
2022/04/23 20:25:34;;;;;;;5.53;2.45;;;14.80;99.90;;;;;;6212953;23;20052;-80
2022/04/23 20:28:00;;;;;;;2.38;2.10;;;14.70;99.90;;;;;;6213068;23;20058;-80
2022/04/23 20:30:28;;;;;;;2.25;2.08;;;14.70;99.90;;;;;;6211436;23;20005;-81
2022/04/23 20:32:54;;;;;;;2.97;2.78;;;14.70;99.90;;;;;;6212943;23;20012;-81
2022/04/23 20:38:12;;;;;;;4.22;2.38;;;14.60;99.90;;;;;;6212806;23;20236;-81
2022/04/23 20:40:40;;;;;;;2.88;2.67;;;14.40;99.90;;;;;;6212946;23;20036;-81
2022/04/23 20:43:07;;;;;;;2.70;2.50;;;14.40;99.90;;;;;;6212274;23;20126;-82
2022/04/23 20:45:34;;;;;;;2.70;2.50;;;14.30;99.90;;;;;;6212827;23;20084;-82
2022/04/23 20:48:01;;;;;;;3.97;2.45;;;14.30;99.90;;;;;;6212882;23;20005;-82
2022/04/23 20:50:27;;;;;;;4.22;2.20;;;14.30;99.90;;;;;;6212957;23;20088;-82
2022/04/23 20:53:12;;;;;;;1.98;1.88;;;14.20;99.90;;;;;;6212800;23;20004;-82
2022/04/23 20:55:44;;;;;;;2.65;1.85;;;14.20;99.90;;;;;;6213020;23;20431;-83
2022/04/23 20:58:10;;;;;;;2.10;1.90;;;14.10;99.90;;;;;;6212563;23;20008;-83
2022/04/23 21:00:36;;;;;;;1.70;1.52;;;14.10;99.90;;;;;;6211396;23;20005;-83
2022/04/23 21:03:03;;;;;;;1.60;1.50;;;14.10;99.90;;;;;;6212495;23;20063;-82
2022/04/23 21:05:31;;;;;;;3.63;1.50;;;14.00;99.90;;;;;;6212778;23;20072;-83
2022/04/23 21:07:58;;;;;;;2.85;1.52;;;14.00;99.90;;;;;;6211435;23;20007;-83
2022/04/23 21:10:25;;;;;;;2.33;1.38;;;14.10;99.90;;;;;;6213484;23;19997;-83
2022/04/23 21:12:51;;;;;;;1.60;1.50;;;14.10;99.90;;;;;;6212509;23;20041;-82
2022/04/23 21:15:17;;;;;;;5.07;1.63;;;14.10;99.90;;;;;;6213153;23;20453;-82
2022/04/23 21:17:43;;;;;;;2.15;1.95;;;14.10;99.90;;;;;;6214361;23;20344;-82
2022/04/23 21:20:09;;;;;;;1.60;1.50;;;14.10;99.90;;;;;;6213137;23;20004;-82
2022/04/23 21:22:35;;;;;;;1.88;1.40;;;14.10;99.90;;;;;;6214115;23;20004;-82
2022/04/23 21:25:01;;;;;;;1.42;1.33;;;14.20;99.90;;;;;;6214673;23;20023;-82
2022/04/23 21:27:27;;;;;;;1.60;1.50;;;14.20;99.90;;;;;;6214616;23;20399;-81
2022/04/23 21:29:53;;;;;;;2.45;2.05;;;14.20;99.90;;;;;;6214519;23;20001;-81
2022/04/23 21:32:19;;;;;;;2.15;1.65;;;14.20;99.90;;;;;;6214718;23;20443;-81